Time,TemperatureF,DewpointF,PressureIn,WindDirection,WindDirectionDegrees,WindSpeedMPH,WindSpeedGustMPH,Humidity,HourlyPrecipIn,Conditions,Clouds,dailyrainin,SoftwareType,DateUTC
2013-03-13 00:14:00,54.3,23.0,30.15,SSW,209,5.0,8.0,29,0.00,,,0.00,weatherlink.com 1.10,2013-03-13 06:14:00,
2013-03-13 01:00:00,53.7,23.0,30.15,SSW,196,4.0,10.0,30,0.00,,,0.00,weatherlink.com 1.10,2013-03-13 07:00:00,
2013-03-13 02:33:00,52.8,23.0,30.16,SSE,162,3.0,6.0,31,0.00,,,0.00,weatherlink.com 1.10,2013-03-13 08:33:00,
2013-03-13 03:21:00,50.8,23.0,30.16,South,171,4.0,4.0,33,0.00,,,0.00,weatherlink.com 1.10,2013-03-13 09:21:00,
2013-03-13 04:07:00,48.3,23.0,30.15,East,101,0.0,1.0,36,0.00,,,0.00,weatherlink.com 1.10,2013-03-13 10:07:00,
2013-03-13 04:55:00,46.4,22.0,30.15,ESE,111,0.0,1.0,38,0.00,,,0.00,weatherlink.com 1.10,2013-03-13 10:55:00,
2013-03-13 05:42:00,44.3,21.0,30.16,ESE,119,0.0,0.0,40,0.00,,,0.00,weatherlink.com 1.10,2013-03-13 11:42:00,
2013-03-13 06:28:00,42.9,21.0,30.18,West,269,0.0,3.0,42,0.00,,,0.00,weatherlink.com 1.10,2013-03-13 12:28:00,
2013-03-13 07:14:00,43.6,21.0,30.19,West,269,0.0,1.0,41,0.00,,,0.00,weatherlink.com 1.10,2013-03-13 13:14:00,
2013-03-13 08:00:00,45.0,23.0,30.21,West,269,0.0,0.0,41,0.00,,,0.00,weatherlink.com 1.10,2013-03-13 14:00:00,
2013-03-13 08:46:00,50.5,22.0,30.22,SSW,192,2.0,4.0,33,0.00,,,0.00,weatherlink.com 1.10,2013-03-13 14:46:00,
2013-03-13 10:17:00,58.5,23.0,30.24,SSE,163,4.0,5.0,25,0.00,,,0.00,weatherlink.com 1.10,2013-03-13 16:17:00,
2013-03-13 11:02:00,61.8,21.0,30.23,South,183,9.0,11.0,21,0.00,,,0.00,weatherlink.com 1.10,2013-03-13 17:02:00,
2013-03-13 11:47:00,63.5,23.0,30.22,South,189,6.0,11.0,21,0.00,,,0.00,weatherlink.com 1.10,2013-03-13 17:47:00,
2013-03-13 12:32:00,67.1,23.0,30.21,South,169,4.0,11.0,19,0.00,,,0.00,weatherlink.com 1.10,2013-03-13 18:32:00,
2013-03-13 13:17:00,72.1,20.0,30.18,East,96,2.0,8.0,14,0.00,,,0.00,weatherlink.com 1.10,2013-03-13 19:17:00,
2013-03-13 14:05:00,73.0,19.0,30.14,SSW,200,5.0,9.0,13,0.00,,,0.00,weatherlink.com 1.10,2013-03-13 20:05:00,
2013-03-13 14:51:00,75.6,17.0,30.12,SSE,159,2.0,8.0,11,0.00,,,0.00,weatherlink.com 1.10,2013-03-13 20:51:00,
2013-03-13 15:38:00,77.8,17.0,30.10,East,98,1.0,7.0,10,0.00,,,0.00,weatherlink.com 1.10,2013-03-13 21:38:00,
2013-03-13 16:26:00,77.6,9.0,30.08,ESE,111,1.0,8.0,7,0.00,,,0.00,weatherlink.com 1.10,2013-03-13 22:26:00,
2013-03-13 17:14:00,75.9,7.0,30.07,ESE,113,2.0,8.0,7,0.00,,,0.00,weatherlink.com 1.10,2013-03-13 23:14:00,
2013-03-13 18:02:00,74.4,6.0,30.06,SSE,163,4.0,9.0,7,0.00,,,0.00,weatherlink.com 1.10,2013-03-14 00:02:00,
2013-03-13 18:50:00,71.2,9.0,30.05,South,179,0.0,1.0,9,0.00,,,0.00,weatherlink.com 1.10,2013-03-14 00:50:00,
2013-03-13 19:39:00,64.7,9.0,30.06,WSW,251,1.0,2.0,11,0.00,,,0.00,weatherlink.com 1.10,2013-03-14 01:39:00,
2013-03-13 20:26:00,63.9,8.0,30.07,West,277,1.0,3.0,11,0.00,,,0.00,weatherlink.com 1.10,2013-03-14 02:26:00,
2013-03-13 21:14:00,60.8,10.0,30.07,WNW,282,0.0,2.0,13,0.00,,,0.00,weatherlink.com 1.10,2013-03-14 03:14:00,
2013-03-13 22:03:00,60.4,9.0,30.09,West,281,1.0,3.0,13,0.00,,,0.00,weatherlink.com 1.10,2013-03-14 04:03:00,
2013-03-13 22:52:00,59.3,12.0,30.10,West,280,0.0,2.0,15,0.00,,,0.00,weatherlink.com 1.10,2013-03-14 04:52:00,
2013-03-13 23:39:00,56.9,14.0,30.10,WSW,237,0.0,1.0,18,0.00,,,0.00,weatherlink.com 1.10,2013-03-14 05:39:00,